createdAt,value
2023-02-12T00:02:37.030Z,14.80
2023-02-12T00:05:42.040Z,17.63
2023-02-12T00:08:45.008Z,18.90
2023-02-12T00:11:47.612Z,15.90
2023-02-12T00:14:50.272Z,16.17
2023-02-12T00:17:52.876Z,13.40
2023-02-12T00:21:00.421Z,16.13
2023-02-12T00:24:03.510Z,14.27
2023-02-12T00:27:06.082Z,16.77
2023-02-12T00:30:09.210Z,14.37
2023-02-12T00:33:11.803Z,12.37
2023-02-12T00:36:17.875Z,14.27
2023-02-12T00:39:20.485Z,12.67
2023-02-12T00:42:23.081Z,15.53
2023-02-12T00:45:25.719Z,9.83
2023-02-12T00:48:28.415Z,11.30
2023-02-12T00:51:32.373Z,10.73
2023-02-12T00:54:34.943Z,10.83
2023-02-12T00:57:37.549Z,10.67
2023-02-12T01:00:40.359Z,13.47
2023-02-12T01:03:42.937Z,8.90
2023-02-12T01:06:46.895Z,7.80
2023-02-12T01:09:49.720Z,9.77
2023-02-12T01:12:52.357Z,7.33
2023-02-12T01:16:08.608Z,10.30
2023-02-12T01:19:12.682Z,11.53
2023-02-12T01:22:16.630Z,9.83
2023-02-12T01:25:20.753Z,7.90
2023-02-12T01:28:23.578Z,6.87
2023-02-12T01:31:28.995Z,8.13
2023-02-12T01:34:31.753Z,8.47
2023-02-12T01:37:37.648Z,7.90
2023-02-12T01:40:40.237Z,11.90
2023-02-12T01:43:43.027Z,11.57
2023-02-12T01:46:47.667Z,12.17
2023-02-12T01:49:50.427Z,9.47
2023-02-12T01:52:58.712Z,9.40
2023-02-12T01:56:03.222Z,7.73
2023-02-12T01:59:06.351Z,11.40
2023-02-12T02:02:09.064Z,8.47
2023-02-12T02:05:16.307Z,8.00
2023-02-12T02:08:20.256Z,6.93
2023-02-12T02:11:40.797Z,7.97
2023-02-12T02:14:45.368Z,8.30
2023-02-12T02:17:54.260Z,9.97
2023-02-12T02:21:19.847Z,9.17
2023-02-12T02:24:54.662Z,9.33
2023-02-12T02:28:08.417Z,9.37
2023-02-12T02:31:18.722Z,9.07
2023-02-12T02:34:28.021Z,9.90
2023-02-12T02:37:36.930Z,11.17
2023-02-12T02:40:45.645Z,10.13
2023-02-12T02:43:50.275Z,11.43
2023-02-12T02:46:55.171Z,11.30
2023-02-12T02:50:02.879Z,11.13
2023-02-12T02:53:09.459Z,9.80
2023-02-12T02:56:16.734Z,10.03
2023-02-12T02:59:24.244Z,11.70
2023-02-12T03:02:33.046Z,9.20
2023-02-12T03:05:40.971Z,9.13
2023-02-12T03:08:49.300Z,9.63
2023-02-12T03:11:54.076Z,8.37
2023-02-12T03:15:04.256Z,8.70
2023-02-12T03:18:12.234Z,10.67
2023-02-12T03:21:19.798Z,8.67
2023-02-12T03:24:27.710Z,9.13
2023-02-12T03:27:33.673Z,8.87
2023-02-12T03:30:43.873Z,9.07
2023-02-12T03:34:01.422Z,11.50
2023-02-12T03:37:09.367Z,10.23
2023-02-12T03:40:18.796Z,8.83
2023-02-12T03:43:26.135Z,8.27
2023-02-12T03:46:37.015Z,12.43
2023-02-12T03:49:50.500Z,12.80
2023-02-12T03:52:53.163Z,12.07
2023-02-12T03:56:02.553Z,9.93
2023-02-12T03:59:06.432Z,11.63
2023-02-12T04:02:10.095Z,12.10
2023-02-12T04:05:20.495Z,11.13
2023-02-12T04:08:23.685Z,10.77
2023-02-12T04:11:33.913Z,10.13
2023-02-12T04:14:47.276Z,10.57
2023-02-12T04:17:57.920Z,9.80
2023-02-12T04:21:09.138Z,11.60
2023-02-12T04:24:19.838Z,9.67
2023-02-12T04:27:31.180Z,10.67
2023-02-12T04:30:38.528Z,12.77
2023-02-12T04:33:47.258Z,9.03
2023-02-12T04:36:57.279Z,12.50
2023-02-12T04:40:01.210Z,17.53
2023-02-12T04:43:03.900Z,22.37
2023-02-12T04:46:08.553Z,21.13
2023-02-12T04:49:15.982Z,22.33
2023-02-12T04:52:19.910Z,22.80
2023-02-12T04:55:22.497Z,22.27
2023-02-12T04:58:25.075Z,25.97
2023-02-12T05:01:30.302Z,25.17
2023-02-12T05:04:33.809Z,23.77
2023-02-12T05:07:37.763Z,18.47
2023-02-12T05:10:40.371Z,22.80
2023-02-12T05:13:42.936Z,19.87
2023-02-12T05:16:45.602Z,22.17
2023-02-12T05:19:48.928Z,22.17
2023-02-12T05:22:54.576Z,20.83
2023-02-12T05:26:00.380Z,22.00
2023-02-12T05:29:03.304Z,21.33
2023-02-12T05:32:06.876Z,24.40
2023-02-12T05:35:09.779Z,29.60
2023-02-12T05:38:13.697Z,25.83
2023-02-12T05:41:18.554Z,27.33
2023-02-12T05:44:21.173Z,28.17
2023-02-12T05:47:23.763Z,25.87
2023-02-12T05:50:26.380Z,33.83
2023-02-12T05:53:30.542Z,27.30
2023-02-12T05:56:34.810Z,33.13
2023-02-12T05:59:37.407Z,29.47
2023-02-12T06:02:40.318Z,31.73
2023-02-12T06:05:42.990Z,31.10
2023-02-12T06:08:48.752Z,33.87
2023-02-12T06:11:51.355Z,42.33
2023-02-12T06:14:53.993Z,43.17
2023-02-12T06:17:56.575Z,41.63
2023-02-12T06:20:59.194Z,46.73
2023-02-12T06:24:03.170Z,52.93
2023-02-12T06:27:05.803Z,39.60
2023-02-12T06:30:09.402Z,41.37
2023-02-12T06:33:12.000Z,37.63
2023-02-12T06:36:14.698Z,44.27
2023-02-12T06:39:19.045Z,44.40
2023-02-12T06:42:21.649Z,35.73
2023-02-12T06:45:24.338Z,28.50
2023-02-12T06:48:26.961Z,29.57
2023-02-12T06:51:31.314Z,30.23
2023-02-12T06:54:35.314Z,23.53
2023-02-12T06:57:37.928Z,20.97
2023-02-12T07:00:40.612Z,20.30
2023-02-12T07:03:43.642Z,22.67
2023-02-12T07:06:46.276Z,23.27
2023-02-12T07:09:50.216Z,21.97
2023-02-12T07:12:52.794Z,26.50
2023-02-12T07:15:55.704Z,32.33
2023-02-12T07:18:58.516Z,25.40
2023-02-12T07:22:01.159Z,23.13
2023-02-12T07:25:05.745Z,18.90
2023-02-12T07:28:08.433Z,23.27
2023-02-12T07:31:13.337Z,30.37
2023-02-12T07:34:15.993Z,24.47
2023-02-12T07:37:22.522Z,20.40
2023-02-12T07:40:26.872Z,25.33
2023-02-12T07:43:29.448Z,20.77
2023-02-12T07:46:33.943Z,25.70
2023-02-12T07:49:36.667Z,27.20
2023-02-12T07:52:39.242Z,23.30
2023-02-12T07:55:43.204Z,35.77
2023-02-12T07:58:47.684Z,26.37
2023-02-12T08:01:52.199Z,22.33
2023-02-12T08:04:57.187Z,41.63
2023-02-12T08:07:59.756Z,53.87
2023-02-12T08:11:03.676Z,28.03
2023-02-12T08:14:06.681Z,26.30
2023-02-12T08:17:09.399Z,49.33
2023-02-12T08:20:12.604Z,29.67
2023-02-12T08:23:15.164Z,41.30
2023-02-12T08:26:20.803Z,46.57
2023-02-12T08:29:26.195Z,29.70
2023-02-12T08:32:29.366Z,38.03
2023-02-12T08:35:31.979Z,42.10
2023-02-12T08:38:35.313Z,35.00
2023-02-12T08:41:39.298Z,47.47
2023-02-12T08:44:43.313Z,30.30
2023-02-12T08:47:48.496Z,32.43
2023-02-12T08:50:51.105Z,31.87
2023-02-12T08:53:55.225Z,60.20
2023-02-12T08:57:01.296Z,39.33
2023-02-12T09:00:04.980Z,46.13
2023-02-12T09:03:07.588Z,43.73
2023-02-12T09:06:11.147Z,40.33
2023-02-12T09:09:14.058Z,39.83
2023-02-12T09:12:17.998Z,50.40
2023-02-12T09:15:20.584Z,51.10
2023-02-12T09:18:23.142Z,47.23
2023-02-12T09:21:25.726Z,46.23
2023-02-12T09:24:28.523Z,50.67
2023-02-12T09:27:32.503Z,52.03
2023-02-12T09:30:35.222Z,48.30
2023-02-12T09:33:38.050Z,42.03
2023-02-12T09:36:40.639Z,52.77
2023-02-12T09:39:43.341Z,40.83
2023-02-12T09:43:01.832Z,45.40
2023-02-12T09:46:14.513Z,44.17
2023-02-12T09:49:24.808Z,51.13
2023-02-12T09:52:29.862Z,47.83
2023-02-12T09:55:35.041Z,43.73
2023-02-12T09:58:45.008Z,37.40
2023-02-12T10:01:47.723Z,42.17
2023-02-12T10:05:00.625Z,42.53
2023-02-12T10:08:24.634Z,31.20
2023-02-12T10:11:53.115Z,41.40
2023-02-12T10:15:14.126Z,39.07
2023-02-12T10:18:36.064Z,37.87
2023-02-12T10:21:53.299Z,35.27
2023-02-12T10:25:07.641Z,34.83
2023-02-12T10:28:13.931Z,36.20
2023-02-12T10:31:23.290Z,34.87
2023-02-12T10:34:28.424Z,31.97
2023-02-12T10:37:38.482Z,39.73
2023-02-12T10:40:45.149Z,34.83
2023-02-12T10:43:47.776Z,30.63
2023-02-12T10:46:51.743Z,30.63
2023-02-12T10:49:58.717Z,31.00
2023-02-12T10:53:03.536Z,29.83
2023-02-12T10:56:14.904Z,24.57
2023-02-12T10:59:24.162Z,24.47
2023-02-12T11:02:30.120Z,27.53
2023-02-12T11:05:35.908Z,29.03
2023-02-12T11:08:39.488Z,22.57
2023-02-12T11:11:42.151Z,23.37
2023-02-12T11:14:50.244Z,23.50
2023-02-12T11:18:00.510Z,22.10
2023-02-12T11:21:07.423Z,21.37
2023-02-12T11:24:32.561Z,22.00
2023-02-12T11:27:35.193Z,17.47
2023-02-12T11:30:50.304Z,17.70
2023-02-12T11:34:15.238Z,16.23
2023-02-12T11:37:20.758Z,15.47
2023-02-12T11:40:26.053Z,17.27
2023-02-12T11:43:31.422Z,17.20
2023-02-12T11:46:34.196Z,13.73
2023-02-12T11:49:44.472Z,13.97
2023-02-12T11:52:51.545Z,20.13
2023-02-12T11:56:00.805Z,20.83
2023-02-12T11:59:20.196Z,23.33
2023-02-12T12:02:27.478Z,19.47
2023-02-12T12:05:37.568Z,20.93
2023-02-12T12:08:45.133Z,23.13
2023-02-12T12:11:58.852Z,21.70
2023-02-12T12:15:21.547Z,21.27
2023-02-12T12:18:49.749Z,22.10
2023-02-12T12:21:59.712Z,19.77
2023-02-12T12:25:11.925Z,17.50
2023-02-12T12:28:29.241Z,16.37
2023-02-12T12:31:36.923Z,16.80
2023-02-12T12:34:39.539Z,17.63
2023-02-12T12:37:48.459Z,16.60
2023-02-12T12:41:03.780Z,16.63
2023-02-12T12:44:18.177Z,15.90
2023-02-12T12:47:26.906Z,13.90
2023-02-12T12:50:43.363Z,14.90
2023-02-12T12:54:03.794Z,16.10
2023-02-12T12:57:16.759Z,14.50
2023-02-12T13:00:31.658Z,13.73
2023-02-12T13:04:05.470Z,15.13
2023-02-12T13:07:29.204Z,15.93
2023-02-12T13:10:40.689Z,14.13
2023-02-12T13:13:47.190Z,12.87
2023-02-12T13:16:59.418Z,11.80
2023-02-12T13:20:10.354Z,13.53
2023-02-12T13:23:16.899Z,16.30
2023-02-12T13:26:30.600Z,12.27
2023-02-12T13:29:36.965Z,12.93
2023-02-12T13:32:46.232Z,11.77
2023-02-12T13:35:52.680Z,15.10
2023-02-12T13:38:59.513Z,13.90
2023-02-12T13:42:17.798Z,14.97
2023-02-12T13:45:31.638Z,14.17
2023-02-12T13:48:48.244Z,15.67
2023-02-12T13:52:00.956Z,12.53
2023-02-12T13:55:20.312Z,13.63
2023-02-12T13:59:00.271Z,12.13
2023-02-12T14:02:04.240Z,11.23
2023-02-12T14:05:27.202Z,9.80
2023-02-12T14:08:38.727Z,13.03
2023-02-12T14:11:51.086Z,7.80
2023-02-12T14:15:04.679Z,6.80
2023-02-12T14:18:26.992Z,9.23
2023-02-12T14:21:38.640Z,5.73
2023-02-12T14:24:57.065Z,8.80
2023-02-12T14:28:07.393Z,5.87
2023-02-12T14:31:41.758Z,3.90
2023-02-12T14:34:44.466Z,5.30
2023-02-12T14:37:47.041Z,5.87
2023-02-12T14:40:50.232Z,7.97
2023-02-12T14:44:04.887Z,7.57
2023-02-12T14:47:17.223Z,5.87
2023-02-12T14:50:24.473Z,6.17
2023-02-12T14:53:31.646Z,4.93
2023-02-12T14:56:44.040Z,6.57
2023-02-12T14:59:48.906Z,7.47
2023-02-12T15:02:55.697Z,8.43
2023-02-12T15:06:11.052Z,9.10
2023-02-12T15:09:21.912Z,8.77
2023-02-12T15:12:32.639Z,8.77
2023-02-12T15:15:40.406Z,6.50
2023-02-12T15:18:51.886Z,10.00
2023-02-12T15:21:55.457Z,8.63
2023-02-12T15:25:16.295Z,10.30
2023-02-12T15:28:22.876Z,10.47
2023-02-12T15:31:29.665Z,10.33
2023-02-12T15:34:37.822Z,10.03
2023-02-12T15:37:41.438Z,14.10
2023-02-12T15:40:55.590Z,14.03
2023-02-12T15:43:58.626Z,13.53
2023-02-12T15:47:10.847Z,12.83
2023-02-12T15:50:17.195Z,12.90
2023-02-12T15:53:21.130Z,13.27
2023-02-12T15:56:25.758Z,11.83
2023-02-12T15:59:29.608Z,13.50
2023-02-12T16:02:33.594Z,15.10
2023-02-12T16:05:37.630Z,15.07
2023-02-12T16:08:42.720Z,18.27
2023-02-12T16:11:47.634Z,22.97
2023-02-12T16:14:53.248Z,12.47
2023-02-12T16:17:57.087Z,14.13
2023-02-12T16:21:07.546Z,13.70
2023-02-12T16:24:23.580Z,13.00
2023-02-12T16:27:30.143Z,11.67
2023-02-12T16:30:34.889Z,14.40
2023-02-12T16:33:47.762Z,11.87
2023-02-12T16:36:53.198Z,11.83
2023-02-12T16:40:21.343Z,14.53
2023-02-12T16:43:27.421Z,13.53
2023-02-12T16:46:32.644Z,22.90
2023-02-12T16:49:35.440Z,13.10
2023-02-12T16:52:41.077Z,15.47
2023-02-12T16:55:43.669Z,18.40
2023-02-12T16:58:48.250Z,17.27
2023-02-12T17:01:59.072Z,12.50
2023-02-12T17:05:02.516Z,11.27
2023-02-12T17:08:13.519Z,12.20
2023-02-12T17:11:17.738Z,13.80
2023-02-12T17:14:21.562Z,13.83
2023-02-12T17:17:24.161Z,16.83
2023-02-12T17:20:26.809Z,12.97
2023-02-12T17:23:30.935Z,12.50
2023-02-12T17:26:33.562Z,11.27
2023-02-12T17:29:36.151Z,12.37
2023-02-12T17:32:38.716Z,14.03
2023-02-12T17:35:41.832Z,13.00
2023-02-12T17:38:45.763Z,13.93
2023-02-12T17:41:48.649Z,22.73
2023-02-12T17:44:51.311Z,19.43
2023-02-12T17:47:54.525Z,22.90
2023-02-12T17:50:58.115Z,15.80
2023-02-12T17:54:02.336Z,13.70
2023-02-12T17:57:05.078Z,11.53
2023-02-12T18:00:15.528Z,11.53
2023-02-12T18:03:18.096Z,11.73
2023-02-12T18:06:26.250Z,12.13
2023-02-12T18:09:30.288Z,10.90
2023-02-12T18:12:33.469Z,14.37
2023-02-12T18:15:36.400Z,12.17
2023-02-12T18:18:40.546Z,10.67
2023-02-12T18:21:43.172Z,10.30
2023-02-12T18:24:47.554Z,10.47
2023-02-12T18:27:50.147Z,12.60
2023-02-12T18:30:58.013Z,13.90
2023-02-12T18:34:00.811Z,10.73
2023-02-12T18:37:03.389Z,13.23
2023-02-12T18:40:08.871Z,10.00
2023-02-12T18:43:11.465Z,11.57
2023-02-12T18:46:16.447Z,12.60
2023-02-12T18:49:19.116Z,11.33
2023-02-12T18:52:21.701Z,12.33
2023-02-12T18:55:25.730Z,11.40
2023-02-12T18:58:28.304Z,11.67
2023-02-12T19:01:30.971Z,11.43
2023-02-12T19:04:33.748Z,14.37
2023-02-12T19:07:36.398Z,14.10
2023-02-12T19:10:41.212Z,12.73
2023-02-12T19:13:43.825Z,15.63
2023-02-12T19:16:47.448Z,14.70
2023-02-12T19:19:50.692Z,15.03
2023-02-12T19:22:53.286Z,16.73
2023-02-12T19:25:57.231Z,14.27
2023-02-12T19:29:00.161Z,15.90
2023-02-12T19:32:02.902Z,15.00
2023-02-12T19:35:05.909Z,15.20
2023-02-12T19:38:08.497Z,15.33
2023-02-12T19:41:14.899Z,15.57
2023-02-12T19:44:20.148Z,20.07
2023-02-12T19:47:22.762Z,18.37
2023-02-12T19:50:25.359Z,18.87
2023-02-12T19:53:28.722Z,18.23
2023-02-12T19:56:32.698Z,18.30
2023-02-12T19:59:35.379Z,18.50
2023-02-12T20:02:37.996Z,19.60
2023-02-12T20:05:46.042Z,18.77
2023-02-12T20:08:48.629Z,21.00
2023-02-12T20:11:52.905Z,19.37
2023-02-12T20:14:56.360Z,18.23
2023-02-12T20:17:59.234Z,22.00
2023-02-12T20:21:02.307Z,21.00
2023-02-12T20:24:05.619Z,22.10
2023-02-12T20:27:10.992Z,22.60
2023-02-12T20:30:14.563Z,22.83
2023-02-12T20:33:17.177Z,19.57
2023-02-12T20:36:19.805Z,27.33
2023-02-12T20:39:22.793Z,23.73
2023-02-12T20:42:26.874Z,26.60
2023-02-12T20:45:29.477Z,22.90
2023-02-12T20:48:32.166Z,23.00
2023-02-12T20:51:35.030Z,25.97
2023-02-12T20:54:39.038Z,25.97
2023-02-12T20:57:43.041Z,26.03
2023-02-12T21:00:45.607Z,29.50
2023-02-12T21:03:48.744Z,26.53
2023-02-12T21:06:51.397Z,24.77
2023-02-12T21:09:54.256Z,27.20
2023-02-12T21:12:58.192Z,31.67
2023-02-12T21:16:09.121Z,27.97
2023-02-12T21:19:13.913Z,28.93
2023-02-12T21:22:16.522Z,22.87
2023-02-12T21:25:19.194Z,27.10
2023-02-12T21:28:23.167Z,28.23
2023-02-12T21:31:27.499Z,27.03
2023-02-12T21:34:30.288Z,25.80
2023-02-12T21:37:32.876Z,26.27
2023-02-12T21:40:35.534Z,26.57
2023-02-12T21:43:40.971Z,26.57
2023-02-12T21:46:43.788Z,28.23
2023-02-12T21:49:46.383Z,23.60
2023-02-12T21:52:48.960Z,25.60
2023-02-12T21:55:51.589Z,25.37
2023-02-12T21:58:56.155Z,25.90
2023-02-12T22:01:59.016Z,29.77
2023-02-12T22:05:01.622Z,29.73
2023-02-12T22:08:04.498Z,31.70
2023-02-12T22:11:09.522Z,25.70
2023-02-12T22:14:18.005Z,24.63
2023-02-12T22:17:20.613Z,26.20
2023-02-12T22:20:23.195Z,27.20
2023-02-12T22:23:25.880Z,29.00
2023-02-12T22:26:30.997Z,27.10
2023-02-12T22:29:35.183Z,26.33
2023-02-12T22:32:37.822Z,23.43
2023-02-12T22:35:40.450Z,27.07
2023-02-12T22:38:43.056Z,24.30
2023-02-12T22:41:45.819Z,26.13
2023-02-12T22:44:49.763Z,31.37
2023-02-12T22:47:52.324Z,26.27
2023-02-12T22:50:55.311Z,25.70
2023-02-12T22:53:58.732Z,24.03
2023-02-12T22:57:01.320Z,26.10
2023-02-12T23:00:06.152Z,26.83
2023-02-12T23:03:08.768Z,28.37
2023-02-12T23:06:13.512Z,26.23
2023-02-12T23:09:18.864Z,24.37
2023-02-12T23:12:21.504Z,24.93
2023-02-12T23:15:25.526Z,25.53
2023-02-12T23:18:28.382Z,24.43
2023-02-12T23:21:32.424Z,23.87
2023-02-12T23:24:35.125Z,28.53
2023-02-12T23:27:37.863Z,24.50
2023-02-12T23:30:41.856Z,25.33
2023-02-12T23:33:44.500Z,25.37
2023-02-12T23:36:47.090Z,22.83
2023-02-12T23:39:49.684Z,21.77
2023-02-12T23:42:52.277Z,25.30
2023-02-12T23:45:56.285Z,22.97
2023-02-12T23:48:59.186Z,27.57
2023-02-12T23:52:01.845Z,22.10
2023-02-12T23:55:04.818Z,26.70
2023-02-12T23:58:07.790Z,24.80
